createdAt,value
2023-04-12T00:00:45.980Z,72.76
2023-04-12T00:03:20.319Z,72.87
2023-04-12T00:05:48.455Z,72.86
2023-04-12T00:08:16.899Z,72.79
2023-04-12T00:10:58.168Z,72.26
2023-04-12T00:13:25.035Z,71.96
2023-04-12T00:15:52.862Z,71.74
2023-04-12T00:18:29.424Z,71.58
2023-04-12T00:20:56.448Z,71.20
2023-04-12T00:23:24.782Z,71.04
2023-04-12T00:25:52.173Z,71.20
2023-04-12T00:28:19.554Z,70.70
2023-04-12T00:30:48.326Z,70.96
2023-04-12T00:33:16.943Z,70.76
2023-04-12T00:35:43.739Z,70.88
2023-04-12T00:38:13.877Z,70.91
2023-04-12T00:40:43.999Z,71.01
2023-04-12T00:43:18.959Z,71.14
2023-04-12T00:45:46.581Z,71.25
2023-04-12T00:48:14.326Z,71.33
2023-04-12T00:50:45.272Z,71.31
2023-04-12T00:53:14.349Z,71.12
2023-04-12T00:55:48.439Z,70.98
2023-04-12T00:58:16.221Z,71.28
2023-04-12T01:00:50.942Z,71.14
2023-04-12T01:03:24.390Z,70.80
2023-04-12T01:05:59.099Z,71.20
2023-04-12T01:08:40.331Z,71.07
2023-04-12T01:11:27.025Z,70.63
2023-04-12T01:13:54.363Z,70.97
2023-04-12T01:16:21.696Z,71.06
2023-04-12T01:18:51.748Z,71.22
2023-04-12T01:21:36.129Z,71.32
2023-04-12T01:24:14.222Z,72.50
2023-04-12T01:26:45.485Z,71.90
2023-04-12T01:29:14.839Z,71.74
2023-04-12T01:31:42.681Z,71.31
2023-04-12T01:34:11.615Z,72.02
2023-04-12T01:36:39.940Z,72.26
2023-04-12T01:39:06.893Z,72.94
2023-04-12T01:41:34.196Z,72.86
2023-04-12T01:44:01.552Z,73.55
2023-04-12T01:46:28.429Z,73.29
2023-04-12T01:48:55.248Z,73.92
2023-04-12T01:51:35.662Z,74.32
2023-04-12T01:54:22.653Z,73.30
2023-04-12T01:56:51.599Z,73.75
2023-04-12T01:59:19.184Z,76.27
2023-04-12T02:01:47.053Z,75.29
2023-04-12T02:04:14.773Z,75.07
2023-04-12T02:06:42.523Z,75.64
2023-04-12T02:09:09.767Z,75.60
2023-04-12T02:11:37.076Z,75.63
2023-04-12T02:14:03.749Z,75.62
2023-04-12T02:16:32.703Z,76.38
2023-04-12T02:18:59.540Z,77.93
2023-04-12T02:21:27.770Z,76.92
2023-04-12T02:23:55.249Z,75.63
2023-04-12T02:26:23.605Z,77.56
2023-04-12T02:28:50.527Z,78.72
2023-04-12T02:31:17.609Z,77.75
2023-04-12T02:33:44.373Z,76.61
2023-04-12T02:36:11.677Z,76.63
2023-04-12T02:38:38.791Z,76.05
2023-04-12T02:41:05.800Z,76.25
2023-04-12T02:43:32.916Z,76.97
2023-04-12T02:46:03.092Z,75.71
2023-04-12T02:48:30.945Z,76.39
2023-04-12T02:50:58.475Z,75.97
2023-04-12T02:53:28.035Z,75.45
2023-04-12T02:55:55.351Z,77.52
2023-04-12T02:58:22.206Z,76.09
2023-04-12T03:00:50.904Z,75.24
2023-04-12T03:03:18.132Z,75.88
2023-04-12T03:05:47.364Z,74.97
2023-04-12T03:08:14.184Z,74.88
2023-04-12T03:10:41.215Z,77.41
2023-04-12T03:13:07.922Z,79.40
2023-04-12T03:15:36.470Z,77.61
2023-04-12T03:18:03.284Z,79.07
2023-04-12T03:20:30.372Z,78.25
2023-04-12T03:22:57.213Z,78.37
2023-04-12T03:25:24.328Z,78.77
2023-04-12T03:27:52.813Z,78.08
2023-04-12T03:30:20.752Z,77.76
2023-04-12T03:32:47.286Z,77.57
2023-04-12T03:35:14.163Z,77.66
2023-04-12T03:37:43.899Z,78.64
2023-04-12T03:40:12.714Z,79.38
2023-04-12T03:42:39.914Z,81.15
2023-04-12T03:45:07.617Z,80.15
2023-04-12T03:47:34.527Z,78.69
2023-04-12T03:50:12.050Z,79.26
2023-04-12T03:52:39.687Z,77.70
2023-04-12T03:55:08.267Z,78.94
2023-04-12T03:57:35.583Z,80.03
2023-04-12T04:00:02.753Z,78.17
2023-04-12T04:02:30.259Z,75.79
2023-04-12T04:04:57.273Z,76.25
2023-04-12T04:07:24.240Z,76.47
2023-04-12T04:09:51.060Z,74.61
2023-04-12T04:12:17.688Z,75.12
2023-04-12T04:14:45.606Z,74.22
2023-04-12T04:17:12.400Z,72.77
2023-04-12T04:19:39.503Z,72.99
2023-04-12T04:22:06.888Z,74.97
2023-04-12T04:24:34.452Z,75.01
2023-04-12T04:27:02.419Z,74.54
2023-04-12T04:29:31.152Z,74.26
2023-04-12T04:31:58.271Z,74.22
2023-04-12T04:34:25.658Z,72.56
2023-04-12T04:36:53.894Z,73.67
2023-04-12T04:39:21.024Z,75.24
2023-04-12T04:41:55.189Z,75.49
2023-04-12T04:44:22.594Z,76.66
2023-04-12T04:46:49.437Z,75.44
2023-04-12T04:49:17.296Z,78.22
2023-04-12T04:51:44.198Z,75.98
2023-04-12T04:54:11.399Z,74.26
2023-04-12T04:56:39.181Z,74.36
2023-04-12T04:59:05.737Z,74.41
2023-04-12T05:01:36.898Z,74.43
2023-04-12T05:04:04.555Z,71.15
2023-04-12T05:06:31.294Z,70.94
2023-04-12T05:08:58.093Z,72.58
2023-04-12T05:11:25.687Z,72.50
2023-04-12T05:13:52.551Z,73.07
2023-04-12T05:16:19.658Z,71.67
2023-04-12T05:18:47.556Z,71.00
2023-04-12T05:21:14.326Z,70.67
2023-04-12T05:23:45.577Z,70.80
2023-04-12T05:26:12.402Z,67.63
2023-04-12T05:28:38.934Z,68.69
2023-04-12T05:31:06.359Z,70.05
2023-04-12T05:33:34.461Z,68.32
2023-04-12T05:36:01.907Z,68.37
2023-04-12T05:38:30.220Z,67.17
2023-04-12T05:40:57.126Z,66.22
2023-04-12T05:43:24.243Z,65.47
2023-04-12T05:45:51.460Z,65.19
2023-04-12T05:48:19.303Z,66.24
2023-04-12T05:50:53.143Z,64.04
2023-04-12T05:53:22.554Z,64.54
2023-04-12T05:55:49.722Z,64.92
2023-04-12T05:58:17.079Z,63.82
2023-04-12T06:00:44.067Z,63.43
2023-04-12T06:03:11.829Z,62.61
2023-04-12T06:05:39.074Z,63.84
2023-04-12T06:08:06.089Z,63.14
2023-04-12T06:10:32.879Z,62.51
2023-04-12T06:13:01.753Z,63.74
2023-04-12T06:15:29.102Z,63.43
2023-04-12T06:17:55.963Z,60.95
2023-04-12T06:20:23.708Z,60.31
2023-04-12T06:22:50.847Z,60.12
2023-04-12T06:25:18.095Z,60.16
2023-04-12T06:27:44.928Z,60.80
2023-04-12T06:30:12.053Z,59.94
2023-04-12T06:32:39.457Z,59.08
2023-04-12T06:35:06.332Z,58.37
2023-04-12T06:37:32.938Z,57.88
2023-04-12T06:39:59.862Z,57.09
2023-04-12T06:42:26.412Z,57.74
2023-04-12T06:44:53.593Z,56.71
2023-04-12T06:47:22.938Z,56.63
2023-04-12T06:49:53.836Z,55.86
2023-04-12T06:52:24.239Z,55.48
2023-04-12T06:54:50.952Z,55.37
2023-04-12T06:57:17.564Z,54.80
2023-04-12T06:59:44.575Z,54.92
2023-04-12T07:02:12.145Z,55.39
2023-04-12T07:04:39.009Z,54.74
2023-04-12T07:07:06.537Z,53.51
2023-04-12T07:09:34.569Z,53.20
2023-04-12T07:12:02.548Z,52.08
2023-04-12T07:14:29.393Z,52.01
2023-04-12T07:16:56.072Z,51.95
2023-04-12T07:19:22.901Z,50.83
2023-04-12T07:21:49.433Z,52.09
2023-04-12T07:24:16.125Z,51.01
2023-04-12T07:26:42.856Z,51.00
2023-04-12T07:29:09.577Z,50.88
2023-04-12T07:31:36.421Z,50.54
2023-04-12T07:34:03.061Z,50.85
2023-04-12T07:36:29.776Z,50.72
2023-04-12T07:38:57.002Z,50.24
2023-04-12T07:41:23.956Z,49.98
2023-04-12T07:43:51.086Z,48.50
2023-04-12T07:46:21.792Z,49.32
2023-04-12T07:48:49.593Z,49.41
2023-04-12T07:51:16.458Z,49.24
2023-04-12T07:53:48.152Z,49.66
2023-04-12T07:56:15.192Z,49.58
2023-04-12T07:58:42.152Z,49.74
2023-04-12T08:01:09.203Z,49.31
2023-04-12T08:03:36.326Z,49.83
2023-04-12T08:06:11.696Z,49.75
2023-04-12T08:08:38.896Z,48.54
2023-04-12T08:11:13.325Z,48.61
2023-04-12T08:13:40.640Z,49.45
2023-04-12T08:16:09.666Z,48.72
2023-04-12T08:18:42.174Z,48.57
2023-04-12T08:21:10.569Z,48.40
2023-04-12T08:23:39.540Z,48.41
2023-04-12T08:26:07.262Z,48.43
2023-04-12T08:28:41.764Z,48.88
2023-04-12T08:31:09.377Z,50.15
2023-04-12T08:33:40.057Z,49.19
2023-04-12T08:36:08.854Z,48.86
2023-04-12T08:38:45.456Z,48.24
2023-04-12T08:41:14.922Z,48.61
2023-04-12T08:43:46.620Z,49.23
2023-04-12T08:46:26.266Z,48.47
2023-04-12T08:48:59.633Z,48.32
2023-04-12T08:51:28.764Z,48.33
2023-04-12T08:54:12.382Z,47.97
2023-04-12T08:56:45.116Z,48.34
2023-04-12T08:59:16.777Z,48.90
2023-04-12T09:01:44.714Z,48.33
2023-04-12T09:04:13.884Z,48.40
2023-04-12T09:06:41.542Z,48.45
2023-04-12T09:09:10.478Z,47.85
2023-04-12T09:11:40.010Z,48.24
2023-04-12T09:14:36.394Z,48.19
2023-04-12T09:17:03.655Z,48.16
2023-04-12T09:19:34.658Z,48.38
2023-04-12T09:22:06.461Z,47.94
2023-04-12T09:24:47.318Z,47.42
2023-04-12T09:27:14.281Z,47.81
2023-04-12T09:29:41.329Z,47.78
2023-04-12T09:32:09.669Z,47.44
2023-04-12T09:34:37.660Z,47.59
2023-04-12T09:37:17.510Z,47.74
2023-04-12T09:39:44.941Z,47.45
2023-04-12T09:42:29.922Z,46.72
2023-04-12T09:45:02.138Z,46.54
2023-04-12T09:47:40.179Z,47.28
2023-04-12T09:50:10.414Z,46.94
2023-04-12T09:52:40.514Z,47.44
2023-04-12T09:55:11.049Z,46.85
2023-04-12T09:57:39.742Z,47.56
2023-04-12T10:00:18.295Z,47.43
2023-04-12T10:02:48.129Z,47.58
2023-04-12T10:05:23.008Z,47.26
2023-04-12T10:07:50.832Z,46.97
2023-04-12T10:10:19.365Z,46.53
2023-04-12T10:12:47.913Z,46.85
2023-04-12T10:15:18.928Z,46.35
2023-04-12T10:17:48.170Z,46.31
2023-04-12T10:20:17.391Z,46.14
2023-04-12T10:22:46.013Z,45.81
2023-04-12T10:25:21.067Z,46.07
2023-04-12T10:27:48.272Z,45.44
2023-04-12T10:30:33.230Z,45.33
2023-04-12T10:33:04.386Z,46.10
2023-04-12T10:35:49.715Z,46.30
2023-04-12T10:38:17.217Z,46.88
2023-04-12T10:41:03.602Z,46.44
2023-04-12T10:43:47.850Z,46.09
2023-04-12T10:46:36.361Z,45.61
2023-04-12T10:49:11.365Z,45.44
2023-04-12T10:51:38.948Z,46.07
2023-04-12T10:54:09.390Z,45.88
2023-04-12T10:56:38.750Z,46.24
2023-04-12T10:59:07.866Z,47.03
2023-04-12T11:01:38.650Z,45.75
2023-04-12T11:04:07.411Z,46.25
2023-04-12T11:07:06.053Z,46.00
2023-04-12T11:09:48.755Z,44.97
2023-04-12T11:12:16.347Z,45.34
2023-04-12T11:14:46.340Z,45.53
2023-04-12T11:17:17.310Z,45.73
2023-04-12T11:19:45.935Z,45.50
2023-04-12T11:22:16.659Z,45.37
2023-04-12T11:24:44.850Z,45.61
2023-04-12T11:27:12.987Z,46.57
2023-04-12T11:29:40.603Z,47.19
2023-04-12T11:32:10.568Z,48.67
2023-04-12T11:34:38.703Z,51.55
2023-04-12T11:37:08.341Z,54.55
2023-04-12T11:39:36.102Z,57.70
2023-04-12T11:42:06.170Z,58.73
2023-04-12T11:44:47.837Z,58.17
2023-04-12T11:47:23.639Z,59.06
2023-04-12T11:49:52.800Z,61.08
2023-04-12T11:52:20.255Z,62.96
2023-04-12T11:54:48.302Z,63.56
2023-04-12T11:57:16.507Z,63.87
2023-04-12T11:59:45.184Z,63.27
2023-04-12T12:02:23.530Z,62.42
2023-04-12T12:04:56.881Z,63.45
2023-04-12T12:07:25.188Z,64.27
2023-04-12T12:09:55.111Z,66.97
2023-04-12T12:12:25.630Z,66.38
2023-04-12T12:14:54.162Z,70.18
2023-04-12T12:17:21.336Z,69.77
2023-04-12T12:19:49.430Z,70.30
2023-04-12T12:22:18.368Z,71.56
2023-04-12T12:24:54.180Z,71.98
2023-04-12T12:27:23.257Z,70.00
2023-04-12T12:29:51.880Z,70.51
2023-04-12T12:32:19.996Z,71.31
2023-04-12T12:34:54.050Z,72.50
2023-04-12T12:37:22.060Z,74.84
2023-04-12T12:40:01.977Z,73.16
2023-04-12T12:42:29.163Z,75.82
2023-04-12T12:44:56.984Z,73.72
2023-04-12T12:47:25.479Z,76.95
2023-04-12T12:49:52.766Z,76.01
2023-04-12T12:52:22.593Z,75.72
2023-04-12T12:54:49.948Z,77.23
2023-04-12T12:57:17.111Z,78.18
2023-04-12T12:59:47.466Z,75.26
2023-04-12T13:02:24.810Z,75.46
2023-04-12T13:04:52.503Z,74.08
2023-04-12T13:07:19.456Z,77.32
2023-04-12T13:09:47.788Z,77.98
2023-04-12T13:12:16.957Z,78.23
2023-04-12T13:14:43.715Z,76.32
2023-04-12T13:17:11.660Z,73.45
2023-04-12T13:19:38.265Z,75.52
2023-04-12T13:22:06.824Z,75.43
2023-04-12T13:24:38.460Z,77.46
2023-04-12T13:27:05.841Z,74.61
2023-04-12T13:29:33.733Z,77.18
2023-04-12T13:32:01.356Z,77.32
2023-04-12T13:34:28.849Z,78.88
2023-04-12T13:36:56.008Z,76.53
2023-04-12T13:39:24.481Z,75.70
2023-04-12T13:41:52.078Z,76.03
2023-04-12T13:44:27.642Z,74.11
2023-04-12T13:46:55.577Z,74.02
2023-04-12T13:49:22.489Z,72.87
2023-04-12T13:51:49.977Z,73.76
2023-04-12T13:54:17.725Z,77.21
2023-04-12T13:56:44.888Z,74.99
2023-04-12T13:59:13.555Z,75.40
2023-04-12T14:01:41.130Z,75.82
2023-04-12T14:04:07.986Z,76.14
2023-04-12T14:06:34.923Z,77.49
2023-04-12T14:09:01.765Z,75.62
2023-04-12T14:11:29.620Z,75.30
2023-04-12T14:13:56.397Z,74.78
2023-04-12T14:16:23.164Z,76.74
2023-04-12T14:18:50.150Z,78.03
2023-04-12T14:21:17.498Z,74.26
2023-04-12T14:23:45.751Z,77.25
2023-04-12T14:26:16.384Z,76.69
2023-04-12T14:28:43.961Z,74.52
2023-04-12T14:31:10.631Z,75.74
2023-04-12T14:33:37.784Z,75.37
2023-04-12T14:36:08.505Z,79.80
2023-04-12T14:38:35.643Z,78.20
2023-04-12T14:41:14.432Z,76.70
2023-04-12T14:43:43.499Z,74.97
2023-04-12T14:46:13.368Z,76.00
2023-04-12T14:48:41.745Z,73.85
2023-04-12T14:51:08.974Z,75.45
2023-04-12T14:53:38.295Z,76.44
2023-04-12T14:56:06.971Z,76.71
2023-04-12T14:58:34.751Z,78.95
2023-04-12T15:01:04.318Z,76.55
2023-04-12T15:03:35.208Z,76.31
2023-04-12T15:06:03.630Z,76.25
2023-04-12T15:08:35.802Z,76.31
2023-04-12T15:11:03.564Z,75.97
2023-04-12T15:13:33.766Z,78.00
2023-04-12T15:16:04.946Z,77.75
2023-04-12T15:18:32.344Z,76.27
2023-04-12T15:21:00.656Z,78.30
2023-04-12T15:23:27.885Z,82.26
2023-04-12T15:26:03.877Z,80.42
2023-04-12T15:28:33.050Z,78.66
2023-04-12T15:31:01.997Z,75.86
2023-04-12T15:33:30.864Z,77.84
2023-04-12T15:35:59.226Z,78.07
2023-04-12T15:38:27.485Z,76.54
2023-04-12T15:40:55.788Z,77.50
2023-04-12T15:43:23.638Z,75.93
2023-04-12T15:45:53.226Z,76.78
2023-04-12T15:48:20.983Z,75.76
2023-04-12T15:50:48.857Z,78.22
2023-04-12T15:53:16.981Z,79.69
2023-04-12T15:55:47.124Z,79.29
2023-04-12T15:58:14.982Z,77.83
2023-04-12T16:00:42.818Z,78.07
2023-04-12T16:03:10.505Z,77.26
2023-04-12T16:05:37.400Z,78.96
2023-04-12T16:08:04.897Z,78.79
2023-04-12T16:10:34.205Z,78.59
2023-04-12T16:13:01.093Z,77.11
2023-04-12T16:15:28.014Z,75.89
2023-04-12T16:17:56.379Z,76.42
2023-04-12T16:20:23.868Z,75.57
2023-04-12T16:22:54.307Z,76.08
2023-04-12T16:25:25.307Z,75.71
2023-04-12T16:27:52.255Z,76.75
2023-04-12T16:30:20.586Z,78.18
2023-04-12T16:32:47.992Z,77.88
2023-04-12T16:35:15.683Z,80.20
2023-04-12T16:37:43.991Z,78.40
2023-04-12T16:40:20.765Z,77.51
2023-04-12T16:42:48.191Z,75.61
2023-04-12T16:45:15.152Z,78.81
2023-04-12T16:47:43.354Z,76.62
2023-04-12T16:50:11.262Z,75.22
2023-04-12T16:52:40.641Z,73.90
2023-04-12T16:55:11.112Z,77.31
2023-04-12T16:57:42.346Z,75.33
2023-04-12T17:00:19.202Z,74.13
2023-04-12T17:02:47.168Z,74.06
2023-04-12T17:05:17.697Z,73.03
2023-04-12T17:07:51.359Z,73.83
2023-04-12T17:10:18.626Z,73.52
2023-04-12T17:12:46.377Z,73.10
2023-04-12T17:15:15.491Z,77.10
2023-04-12T17:17:42.833Z,75.52
2023-04-12T17:20:13.716Z,76.56
2023-04-12T17:22:40.188Z,74.88
2023-04-12T17:25:06.891Z,74.35
2023-04-12T17:27:37.556Z,71.24
2023-04-12T17:30:05.296Z,72.35
2023-04-12T17:32:33.095Z,74.23
2023-04-12T17:34:59.864Z,73.26
2023-04-12T17:37:28.816Z,77.12
2023-04-12T17:39:58.910Z,75.08
2023-04-12T17:42:27.825Z,74.11
2023-04-12T17:44:54.596Z,74.12
2023-04-12T17:47:22.532Z,72.85
2023-04-12T17:49:49.619Z,73.12
2023-04-12T17:52:18.365Z,77.37
2023-04-12T17:54:46.204Z,75.39
2023-04-12T17:57:13.510Z,76.88
2023-04-12T17:59:40.398Z,76.79
2023-04-12T18:02:07.035Z,75.39
2023-04-12T18:04:34.853Z,74.27
2023-04-12T18:07:01.818Z,75.27
2023-04-12T18:09:28.619Z,74.42
2023-04-12T18:11:55.314Z,77.40
2023-04-12T18:14:22.467Z,74.95
2023-04-12T18:16:49.035Z,76.30
2023-04-12T18:19:16.625Z,76.17
2023-04-12T18:21:44.537Z,79.29
2023-04-12T18:24:10.978Z,82.05
2023-04-12T18:26:39.060Z,83.71
2023-04-12T18:29:06.455Z,79.58
2023-04-12T18:31:33.431Z,81.81
2023-04-12T18:34:03.613Z,78.75
2023-04-12T18:36:31.424Z,79.25
2023-04-12T18:38:59.471Z,78.67
2023-04-12T18:41:26.768Z,76.11
2023-04-12T18:43:54.705Z,75.73
2023-04-12T18:46:22.214Z,78.90
2023-04-12T18:48:52.310Z,79.14
2023-04-12T18:51:22.363Z,77.72
2023-04-12T18:53:50.430Z,76.24
2023-04-12T18:56:23.173Z,77.42
2023-04-12T18:58:55.590Z,79.49
2023-04-12T19:01:23.406Z,77.38
2023-04-12T19:03:51.339Z,77.04
2023-04-12T19:06:18.949Z,77.31
2023-04-12T19:08:46.202Z,79.23
2023-04-12T19:11:14.150Z,80.75
2023-04-12T19:13:41.294Z,80.37
2023-04-12T19:16:08.254Z,80.86
2023-04-12T19:18:36.499Z,81.13
2023-04-12T19:21:04.475Z,77.31
2023-04-12T19:23:33.338Z,78.40
2023-04-12T19:26:00.720Z,77.70
2023-04-12T19:28:29.153Z,77.04
2023-04-12T19:31:01.877Z,77.86
2023-04-12T19:33:29.055Z,76.26
2023-04-12T19:35:57.296Z,74.11
2023-04-12T19:38:24.298Z,75.35
2023-04-12T19:40:51.586Z,78.52
2023-04-12T19:43:21.353Z,80.86
2023-04-12T19:45:48.472Z,82.42
2023-04-12T19:48:17.132Z,79.97
2023-04-12T19:50:46.355Z,77.20
2023-04-12T19:53:18.361Z,77.42
2023-04-12T19:55:45.393Z,77.77
2023-04-12T19:58:13.596Z,76.47
2023-04-12T20:00:45.176Z,77.45
2023-04-12T20:03:12.644Z,78.24
2023-04-12T20:05:43.128Z,79.90
2023-04-12T20:08:11.312Z,78.28
2023-04-12T20:10:39.072Z,77.58
2023-04-12T20:13:15.170Z,80.40
2023-04-12T20:15:45.389Z,78.01
2023-04-12T20:18:14.119Z,76.89
2023-04-12T20:20:46.063Z,77.86
2023-04-12T20:23:15.908Z,76.61
2023-04-12T20:25:49.887Z,85.14
2023-04-12T20:28:18.953Z,83.41
2023-04-12T20:30:49.357Z,81.76
2023-04-12T20:33:16.855Z,90.08
2023-04-12T20:35:45.281Z,84.68
2023-04-12T20:38:13.217Z,81.38
2023-04-12T20:40:41.623Z,82.24
2023-04-12T20:43:09.867Z,81.68
2023-04-12T20:45:38.247Z,79.17
2023-04-12T20:48:06.356Z,76.91
2023-04-12T20:50:33.493Z,77.50
2023-04-12T20:53:03.272Z,76.80
2023-04-12T20:55:35.301Z,76.17
2023-04-12T20:58:04.007Z,74.50
2023-04-12T21:00:33.476Z,73.98
2023-04-12T21:03:03.464Z,73.55
2023-04-12T21:05:34.328Z,74.93
2023-04-12T21:08:01.197Z,73.41
2023-04-12T21:10:28.409Z,72.92
2023-04-12T21:12:55.055Z,74.76
2023-04-12T21:15:22.141Z,74.52
2023-04-12T21:17:50.151Z,72.94
2023-04-12T21:20:16.805Z,72.29
2023-04-12T21:22:44.756Z,72.78
2023-04-12T21:25:13.576Z,72.24
2023-04-12T21:27:41.713Z,72.05
2023-04-12T21:30:09.696Z,71.65
2023-04-12T21:32:36.236Z,71.09
2023-04-12T21:35:05.671Z,71.06
2023-04-12T21:37:34.101Z,71.55
2023-04-12T21:40:01.075Z,71.70
2023-04-12T21:42:29.534Z,71.41
2023-04-12T21:44:56.237Z,71.85
2023-04-12T21:47:24.348Z,71.32
2023-04-12T21:49:52.750Z,71.59
2023-04-12T21:52:19.691Z,71.44
2023-04-12T21:54:48.651Z,71.38
2023-04-12T21:57:15.780Z,72.05
2023-04-12T21:59:43.484Z,74.16
2023-04-12T22:02:10.391Z,76.43
2023-04-12T22:04:44.628Z,77.31
2023-04-12T22:07:13.211Z,78.60
2023-04-12T22:09:40.130Z,76.82
2023-04-12T22:12:06.991Z,77.45
2023-04-12T22:14:34.944Z,76.50
2023-04-12T22:17:01.727Z,77.00
2023-04-12T22:19:29.587Z,76.19
2023-04-12T22:21:55.916Z,75.66
2023-04-12T22:24:23.423Z,76.85
2023-04-12T22:26:50.065Z,75.62
2023-04-12T22:29:17.579Z,74.69
2023-04-12T22:31:45.887Z,74.91
2023-04-12T22:34:12.862Z,75.73
2023-04-12T22:36:42.428Z,75.94
2023-04-12T22:39:15.737Z,75.73
2023-04-12T22:41:42.498Z,76.01
2023-04-12T22:44:09.643Z,77.64
2023-04-12T22:46:39.147Z,76.88
2023-04-12T22:49:06.032Z,75.69
2023-04-12T22:51:33.963Z,76.07
2023-04-12T22:54:02.624Z,78.39
2023-04-12T22:56:30.131Z,79.85
2023-04-12T22:58:56.846Z,77.49
2023-04-12T23:01:23.904Z,76.62
2023-04-12T23:03:51.828Z,76.81
2023-04-12T23:06:20.587Z,75.45
2023-04-12T23:08:49.638Z,74.79
2023-04-12T23:11:16.876Z,76.31
2023-04-12T23:13:43.400Z,75.45
2023-04-12T23:16:10.154Z,75.35
2023-04-12T23:18:37.739Z,73.53
2023-04-12T23:21:05.323Z,73.39
2023-04-12T23:23:32.223Z,73.56
2023-04-12T23:25:59.423Z,73.75
2023-04-12T23:28:26.724Z,72.98
2023-04-12T23:30:53.452Z,72.58
2023-04-12T23:33:20.889Z,72.47
2023-04-12T23:35:49.353Z,72.47
2023-04-12T23:38:22.876Z,71.91
2023-04-12T23:40:55.447Z,71.82
2023-04-12T23:43:22.763Z,72.33
2023-04-12T23:45:49.507Z,71.74
2023-04-12T23:48:19.316Z,71.88
2023-04-12T23:50:46.169Z,71.88
2023-04-12T23:53:13.173Z,72.13
2023-04-12T23:55:41.863Z,71.35
2023-04-12T23:58:09.316Z,71.37
